Latest Weather Observations for Camden

IDN60801

Issued at 2:03 pm EST Saturday 25 April 2015 (issued every 30 minutes, with the page automatically refreshed every 10 minutes)

About weather observations | Map of weather stations | Latest weather observations for NSW | Other Formats
Station Details ID: 068192 Name: CAMDEN AIRPORT AWS Lat: -34.04 Lon: 150.69 Height: 73.9 m
Data from the previous 72 hours. | See also: Recent months at Camden
Date/Time
EST
Temp
°C
App
Temp
°C
Dew
Point
Rel
Hum
%
Delta-T
°C
Wind Press
QNH
hPa
Press
MSL
hPa
Rain
since 9 am
mm
Dir
 
Spd
km/h
Gust
km/h
Spd
kts
Gust
kts
25/02:00pm 21.9 19.9 10.1 47 6.5 NE 11 17 6 9 1005.0 1004.8 0.0
25/01:30pm 22.9 21.1 11.0 47 6.6 NNE 11 17 6 9 1005.4 1005.2 0.0
25/01:00pm 21.9 20.4 10.4 48 6.3 NNE 9 13 5 7 1005.9 1005.7 0.0
25/12:30pm 23.1 22.8 11.5 48 6.5 NNE 4 9 2 5 1006.2 1006.0 0.0
25/12:00pm 22.0 20.7 9.9 46 6.6 N 7 15 4 8 1006.8 1006.6 0.0
25/11:30am 21.8 21.7 10.9 50 6.0 N 2 7 1 4 1007.5 1007.3 0.0
25/10:30am 19.8 20.0 10.5 55 5.0 CALM 0 0 0 0 1008.1 1007.9 0.0
25/09:30am 15.2 16.3 13.6 90 0.9 CALM 0 0 0 0 1008.8 1008.6 0.0
25/09:00am 13.1 14.0 12.8 98 0.2 CALM 0 0 0 0 1009.0 1008.9 0.2
25/08:30am 11.6 12.0 11.4 99 0.1 CALM 0 0 0 0 1009.1 1009.0 0.2
25/08:00am 10.6 10.8 10.4 99 0.1 CALM 0 0 0 0 1008.9 1008.8 0.2
25/07:41am 10.4 10.5 10.2 99 0.1 CALM 0 0 0 0 1008.6 1008.4 0.2
25/07:30am 9.9 9.5 9.8 99 0.1 SSE 2 6 1 3 1008.6 1008.4 0.2
25/07:22am 9.0 7.6 8.9 99 0.0 SSE 6 6 3 3 1008.4 1008.2 0.2
25/07:00am 8.8 8.5 8.7 99 0.0 CALM 0 0 0 0 1008.2 1008.0 0.2
25/06:57am 8.7 8.4 8.6 99 0.0 CALM 0 0 0 0 1008.2 1008.0 0.2
25/06:30am 8.7 7.1 8.6 99 0.0 SE 7 9 4 5 1007.9 1007.7 0.2
25/05:31am 9.0 8.8 8.9 99 0.0 CALM 0 0 0 0 1007.5 1007.3 0.2
25/05:30am 8.9 8.6 8.8 99 0.0 CALM 0 0 0 0 1007.5 1007.3 0.2
25/05:12am 9.2 9.0 9.1 99 0.0 CALM 0 0 0 0 1007.4 1007.2 0.2
25/05:10am 9.3 9.1 9.2 99 0.0 CALM 0 0 0 0 1007.4 1007.2 0.2
25/05:08am 9.5 9.4 9.4 99 0.0 CALM 0 0 0 0 1007.4 1007.2 0.2
25/05:00am 9.5 9.4 9.4 99 0.0 CALM 0 0 0 0 1007.5 1007.3 0.2
25/04:49am 9.5 9.4 9.4 99 0.0 CALM 0 0 0 0 1007.4 1007.2 0.2
25/04:48am 9.6 9.5 9.5 99 0.0 CALM 0 0 0 0 1007.4 1007.2 0.2
25/04:46am 9.9 9.9 9.8 99 0.1 CALM 0 0 0 0 1007.4 1007.2 0.2
25/04:30am 9.5 8.6 9.4 99 0.0 NW 4 7 2 4 1007.3 1007.1 0.2
25/04:00am 9.3 9.1 9.0 98 0.1 CALM 0 0 0 0 1007.3 1007.1 0.0
25/03:48am 9.3 9.0 8.8 97 0.2 CALM 0 0 0 0 1007.2 1007.0 0.0
25/03:46am 9.4 9.2 8.9 97 0.2 CALM 0 0 0 0 1007.1 1006.9 0.0
25/03:33am 10.7 10.9 10.5 99 0.1 CALM 0 0 0 0 1007.1 1006.9 0.0
25/03:30am 11.0 11.3 10.8 99 0.1 CALM 0 0 0 0 1007.1 1006.9 0.0
25/03:22am 10.7 10.9 10.5 99 0.1 CALM 0 0 0 0 1007.2 1007.0 0.0
25/03:04am 10.3 10.3 9.8 97 0.3 CALM 0 0 0 0 1007.4 1007.2 0.0
25/03:00am 10.3 10.3 9.8 97 0.3 CALM 0 0 0 0 1007.5 1007.3 0.0
25/02:50am 10.7 10.8 10.2 97 0.3 CALM 0 0 0 0 1007.4 1007.2 0.0
25/02:30am 10.5 10.6 10.0 97 0.3 CALM 0 0 0 0 1007.4 1007.2 0.0
25/02:25am 11.0 11.2 10.7 98 0.2 CALM 0 0 0 0 1007.4 1007.2 0.0
25/02:19am 11.3 11.6 11.0 98 0.2 CALM 0 0 0 0 1007.4 1007.2 0.0
25/02:00am 11.3 11.6 10.8 97 0.3 CALM 0 0 0 0 1007.5 1007.3 0.0
25/01:55am 11.3 11.6 10.8 97 0.3 CALM 0 0 0 0 1007.5 1007.3 0.0
25/01:45am 11.5 11.8 10.9 96 0.3 CALM 0 0 0 0 1007.5 1007.3 0.0
25/01:33am 11.4 11.7 10.8 96 0.3 CALM 0 0 0 0 1007.5 1007.3 0.0
25/01:30am 11.5 11.8 11.0 97 0.3 CALM 0 0 0 0 1007.5 1007.3 0.0
25/01:29am 11.6 12.0 11.1 97 0.3 CALM 0 0 0 0 1007.5 1007.3 0.0
25/01:00am 11.7 11.9 10.6 93 0.6 CALM 0 0 0 0 1007.5 1007.3 0.0
25/12:30am 13.0 13.7 12.2 95 0.4 CALM 0 0 0 0 1007.3 1007.1 0.0
25/12:00am 12.6 12.3 11.5 93 0.6 SE 4 7 2 4 1007.3 1007.1 0.0
 
Date/Time
EST
Temp
°C
App
Temp
°C
Dew
Point
Rel
Hum
%
Delta-T
°C
Wind Press
QNH
hPa
Press
MSL
hPa
Rain
since 9 am
mm
Dir
 
Spd
km/h
Gust
km/h
Spd
kts
Gust
kts
24/11:30pm 13.3 13.5 12.0 92 0.7 WSW 2 7 1 4 1007.4 1007.2 0.0
24/11:00pm 13.4 14.0 12.0 91 0.8 CALM 0 0 0 0 1007.2 1007.0 0.0
24/10:30pm 13.6 13.4 11.8 89 1.0 S 4 15 2 8 1007.2 1007.0 0.0
24/10:00pm 13.9 13.6 11.4 85 1.3 SSE 4 7 2 4 1007.1 1006.9 0.0
24/09:30pm 14.3 13.8 12.2 87 1.1 N 6 11 3 6 1007.1 1006.9 0.0
24/09:00pm 16.0 16.2 13.1 83 1.6 NNE 4 9 2 5 1007.1 1006.9 0.0
24/08:30pm 14.8 15.6 12.5 86 1.3 CALM 0 0 0 0 1007.1 1006.9 0.0
24/08:00pm 16.1 16.0 13.4 84 1.5 N 6 7 3 4 1006.8 1006.6 0.0
24/07:30pm 16.3 17.6 14.1 87 1.3 CALM 0 0 0 0 1006.6 1006.4 0.0
24/07:00pm 17.3 18.0 13.4 78 2.2 SSW 2 6 1 3 1006.2 1006.0 0.0
24/06:30pm 18.5 19.8 14.2 76 2.5 CALM 0 0 0 0 1005.9 1005.7 0.0
24/06:00pm 19.0 20.6 14.9 77 2.4 CALM 0 0 0 0 1005.6 1005.4 0.0
24/05:30pm 20.1 20.7 14.2 69 3.4 SSW 4 7 2 4 1005.2 1005.0 0.0
24/05:00pm 21.5 21.4 13.4 60 4.7 WSW 6 7 3 4 1005.0 1004.8 0.0
24/04:30pm 22.7 22.3 12.9 54 5.6 SW 7 9 4 5 1004.9 1004.7 0.0
24/04:00pm 23.5 24.4 13.9 55 5.7 WNW 2 6 1 3 1004.6 1004.4 0.0
24/03:30pm 23.2 22.9 13.4 54 5.7 W 7 9 4 5 1004.6 1004.4 0.0
24/03:00pm 25.3 23.8 13.2 47 7.1 W 13 19 7 10 1004.4 1004.2 0.0
24/02:30pm 24.4 25.0 14.2 53 6.0 W 4 9 2 5 1004.6 1004.4 0.0
24/02:00pm 23.4 23.3 14.9 59 5.1 S 9 15 5 8 1004.6 1004.4 0.0
24/01:30pm 25.3 25.0 14.4 50 6.5 NNW 9 24 5 13 1004.9 1004.7 0.0
24/01:00pm 24.1 24.2 15.6 59 5.2 NE 9 15 5 8 1005.0 1004.8 0.0
24/12:30pm 22.8 22.2 15.6 64 4.3 NNE 13 19 7 10 1005.4 1005.2 0.0
24/12:00pm 22.6 22.9 15.0 62 4.5 NNE 7 11 4 6 1006.0 1005.8 0.0
24/11:30am 21.9 22.4 15.0 65 4.1 NE 6 9 3 5 1006.4 1006.2 0.0
24/11:00am 21.3 21.7 15.2 68 3.6 N 7 11 4 6 1006.9 1006.7 0.0
24/10:30am 19.8 21.7 16.8 83 1.8 SW 2 7 1 4 1007.2 1007.0 0.0
24/10:00am 17.6 19.0 17.4 99 0.1 ESE 6 9 3 5 1007.4 1007.2 0.0
24/09:57am 17.4 18.7 17.2 99 0.1 E 6 7 3 4 1007.5 1007.3 0.0
24/09:55am 17.6 19.4 17.4 99 0.1 ENE 4 7 2 4 1007.5 1007.3 0.0
24/09:40am 16.0 17.5 15.8 99 0.1 NNE 2 7 1 4 1008.0 1007.8 0.0
24/09:30am 15.5 17.2 15.3 99 0.1 CALM 0 6 0 3 1008.0 1007.8 0.0
24/09:21am 15.2 16.4 15.0 99 0.1 NE 2 9 1 5 1008.0 1007.8 0.0
24/09:19am 15.2 16.4 15.0 99 0.1 NE 2 9 1 5 1008.0 1007.8 0.0
24/09:00am 14.3 14.8 14.1 99 0.1 WSW 4 7 2 4 1008.2 1008.0 0.0
24/08:59am 14.1 14.6 13.9 99 0.1 WSW 4 7 2 4 1008.2 1008.0 0.0
24/08:57am 13.8 13.8 13.6 99 0.1 WSW 6 7 3 4 1008.3 1008.1 0.0
24/08:43am 13.6 14.7 13.4 99 0.1 CALM 0 0 0 0 1008.3 1008.1 0.0
24/08:42am 13.8 14.9 13.6 99 0.1 CALM 0 0 0 0 1008.2 1008.0 0.0
24/08:39am 13.4 14.4 13.2 99 0.1 CALM 0 0 0 0 1008.2 1008.0 0.0
24/08:38am 13.5 14.5 13.3 99 0.1 CALM 0 0 0 0 1008.2 1008.0 0.0
24/08:30am 13.6 14.7 13.4 99 0.1 CALM 0 0 0 0 1008.1 1007.9 0.0
24/08:20am 13.2 14.1 13.0 99 0.1 CALM 0 0 0 0 1008.2 1008.0 0.0
24/08:18am 13.1 14.0 12.9 99 0.1 CALM 0 0 0 0 1008.3 1008.1 0.0
24/08:17am 13.1 14.0 12.9 99 0.1 CALM 0 0 0 0 1008.3 1008.1 0.0
24/08:16am 13.1 14.0 12.9 99 0.1 CALM 0 0 0 0 1008.3 1008.1 0.0
24/08:15am 13.1 14.0 12.9 99 0.1 CALM 0 0 0 0 1008.3 1008.1 0.0
24/08:14am 13.1 14.0 12.9 99 0.1 CALM 0 0 0 0 1008.3 1008.1 0.0
24/08:10am 13.1 14.0 12.9 99 0.1 CALM 0 0 0 0 1008.3 1008.1 0.0
24/08:07am 13.0 13.9 12.8 99 0.1 CALM 0 0 0 0 1008.4 1008.2 0.0
24/08:00am 13.0 13.9 12.8 99 0.1 CALM 0 0 0 0 1008.4 1008.2 0.0
24/07:30am 12.6 13.4 12.4 99 0.1 CALM 0 0 0 0 1008.1 1007.9 0.0
24/07:00am 11.8 12.3 11.6 99 0.1 CALM 0 0 0 0 1007.9 1007.7 0.0
24/06:30am 11.9 12.4 11.7 99 0.1 CALM 0 0 0 0 1008.1 1007.9 0.0
24/06:00am 12.1 12.7 11.9 99 0.1 CALM 0 0 0 0 1008.0 1007.8 0.0
24/05:30am 12.0 11.8 11.8 99 0.1 W 4 7 2 4 1007.7 1007.5 0.0
24/05:20am 12.2 12.4 12.0 99 0.1 W 2 7 1 4 1007.8 1007.6 0.0
24/05:05am 12.3 13.0 12.1 99 0.1 CALM 0 0 0 0 1007.6 1007.4 0.0
24/05:00am 12.3 13.0 12.1 99 0.1 CALM 0 0 0 0 1007.7 1007.5 0.0
24/04:30am 12.8 12.9 12.6 99 0.1 W 4 7 2 4 1007.9 1007.7 0.0
24/04:00am 12.8 12.5 12.6 99 0.1 SE 6 9 3 5 1007.9 1007.7 0.0
24/03:30am 12.9 13.7 12.7 99 0.1 CALM 0 0 0 0 1008.2 1008.0 0.0
24/03:05am 13.1 14.0 12.9 99 0.1 CALM 0 0 0 0 1008.4 1008.2 0.0
24/03:00am 13.1 14.0 12.9 99 0.1 CALM 0 0 0 0 1008.4 1008.2 0.0
24/02:54am 12.9 13.4 12.7 99 0.1 S 2 6 1 3 1008.3 1008.1 0.0
24/02:53am 13.0 13.5 12.8 99 0.1 S 2 6 1 3 1008.3 1008.1 0.0
24/02:52am 13.0 13.5 12.8 99 0.1 S 2 7 1 4 1008.3 1008.1 0.0
24/02:30am 13.4 13.3 13.2 99 0.1 N 6 7 3 4 1008.6 1008.4 0.0
24/02:29am 13.4 13.6 13.2 99 0.1 N 4 7 2 4 1008.6 1008.4 0.0
24/02:11am 13.4 14.4 13.2 99 0.1 CALM 0 0 0 0 1008.9 1008.8 0.0
24/02:00am 13.7 14.8 13.5 99 0.1 CALM 0 0 0 0 1009.0 1008.9 0.0
24/01:52am 13.8 14.9 13.6 99 0.1 CALM 0 0 0 0 1008.9 1008.8 0.0
24/01:30am 13.8 14.9 13.6 99 0.1 CALM 0 0 0 0 1009.1 1009.0 0.0
24/01:00am 13.8 14.9 13.5 98 0.2 CALM 0 0 0 0 1009.2 1009.1 0.0
24/12:58am 13.7 14.8 13.4 98 0.2 CALM 0 0 0 0 1009.2 1009.1 0.0
24/12:30am 14.2 15.4 13.9 98 0.2 CALM 0 0 0 0 1009.3 1009.2 0.0
24/12:24am 14.3 15.6 14.0 98 0.2 CALM 0 0 0 0 1009.4 1009.3 0.0
24/12:09am 14.9 16.0 14.7 99 0.1 SE 2 6 1 3 1009.6 1009.5 0.0
24/12:03am 14.5 14.7 14.2 98 0.2 SSE 6 7 3 4 1009.7 1009.6 0.0
24/12:00am 14.6 14.6 14.3 98 0.2 SSE 7 9 4 5 1009.7 1009.6 0.0
 
Date/Time
EST
Temp
°C
App
Temp
°C
Dew
Point
Rel
Hum
%
Delta-T
°C
Wind Press
QNH
hPa
Press
MSL
hPa
Rain
since 9 am
mm
Dir
 
Spd
km/h
Gust
km/h
Spd
kts
Gust
kts
23/11:51pm 14.7 14.8 14.4 98 0.2 SSE 7 9 4 5 1009.8 1009.7 0.0
23/11:31pm 15.0 16.5 14.7 98 0.2 CALM 0 0 0 0 1010.1 1010.0 0.0
23/11:30pm 15.0 16.5 14.7 98 0.2 CALM 0 0 0 0 1010.1 1010.0 0.0
23/11:27pm 15.0 16.5 14.7 98 0.2 CALM 0 0 0 0 1010.1 1010.0 0.0
23/11:10pm 14.9 16.3 14.3 96 0.3 CALM 0 0 0 0 1010.3 1010.2 0.0
23/11:07pm 14.9 16.3 14.3 96 0.3 CALM 0 0 0 0 1010.3 1010.2 0.0
23/11:00pm 15.3 16.9 14.8 97 0.3 CALM 0 0 0 0 1010.2 1010.1 0.0
23/10:30pm 15.4 15.6 14.8 96 0.3 SW 7 9 4 5 1010.4 1010.3 0.0
23/10:00pm 16.1 16.8 15.5 96 0.4 SE 6 9 3 5 1010.8 1010.7 0.0
23/09:30pm 16.2 18.0 15.6 96 0.4 CALM 0 0 0 0 1011.1 1011.0 0.0
23/09:00pm 16.1 17.7 14.8 92 0.7 CALM 0 0 0 0 1011.2 1011.1 0.0
23/08:30pm 16.4 18.1 15.1 92 0.8 CALM 0 0 0 0 1011.2 1011.1 0.0
23/08:00pm 16.9 18.6 15.1 89 1.0 CALM 0 0 0 0 1011.1 1011.0 0.0
23/07:30pm 17.1 18.8 15.1 88 1.2 CALM 0 0 0 0 1011.2 1011.1 0.0
23/07:00pm 17.3 18.9 14.9 86 1.4 CALM 0 0 0 0 1010.9 1010.8 0.0
23/06:30pm 17.4 18.3 15.0 86 1.4 N 4 6 2 3 1010.7 1010.6 0.0
23/06:00pm 17.8 19.2 14.3 80 2.0 CALM 0 0 0 0 1010.4 1010.3 0.0
23/05:30pm 19.0 19.2 14.3 74 2.7 ENE 6 7 3 4 1009.9 1009.8 0.0
23/05:00pm 19.7 19.6 13.9 69 3.4 SE 7 13 4 7 1009.7 1009.6 0.0
23/04:30pm 21.7 21.9 14.6 64 4.2 E 7 11 4 6 1009.4 1009.3 0.0
23/04:00pm 22.0 21.7 14.4 62 4.5 E 9 11 5 6 1009.5 1009.4 0.0
23/03:30pm 21.4 22.0 14.3 64 4.2 ENE 4 9 2 5 1009.7 1009.6 0.0
23/03:00pm 21.8 21.3 13.9 61 4.6 E 9 13 5 7 1009.6 1009.5 0.0
23/02:30pm 21.4 21.4 13.6 61 4.5 E 6 7 3 4 1009.7 1009.6 0.0
23/02:00pm 21.5 20.4 13.2 59 4.8 SE 11 15 6 8 1009.9 1009.8 0.0
23/01:30pm 23.5 22.7 12.8 51 6.2 SSE 9 13 5 7 1009.9 1009.8 0.0
23/01:00pm 22.6 21.7 11.4 49 6.3 SE 7 11 4 6 1010.2 1010.1 0.0
23/12:30pm 23.4 23.2 14.7 58 5.2 SSW 9 13 5 7 1010.5 1010.4 0.0
23/12:00pm 22.4 22.1 13.2 56 5.3 SE 7 13 4 7 1011.0 1010.9 0.0
23/11:30am 22.9 22.6 14.5 59 5.0 SE 9 15 5 8 1011.5 1011.4 0.0
23/11:00am 22.0 20.9 14.4 62 4.5 S 13 17 7 9 1012.0 1011.9 0.0
23/10:30am 21.2 20.2 14.6 66 3.9 S 13 17 7 9 1012.2 1012.1 0.0
23/10:00am 20.2 20.6 15.2 73 3.0 S 7 13 4 7 1012.6 1012.5 0.0
23/09:30am 18.9 19.4 15.0 78 2.3 S 6 11 3 6 1012.7 1012.6 0.0
23/09:00am 17.8 19.3 14.7 82 1.8 CALM 0 0 0 0 1012.8 1012.7 14.4
23/08:30am 16.7 18.7 16.1 96 0.4 CALM 0 0 0 0 1012.7 1012.6 14.4
23/08:00am 15.3 17.0 15.1 99 0.1 CALM 0 0 0 0 1012.8 1012.7 14.4
23/07:34am 13.7 14.8 13.5 99 0.1 CALM 0 0 0 0 1012.9 1012.8 14.4
23/07:30am 13.7 14.8 13.5 99 0.1 CALM 0 0 0 0 1012.9 1012.8 14.4
23/07:15am 13.0 13.9 12.8 99 0.1 CALM 0 0 0 0 1012.9 1012.8 14.4
23/07:06am 12.7 13.5 12.5 99 0.1 CALM 0 0 0 0 1012.9 1012.8 14.4
23/07:00am 12.6 13.4 12.4 99 0.1 CALM 0 0 0 0 1012.8 1012.7 14.4
23/06:46am 12.4 13.1 12.2 99 0.1 CALM 0 0 0 0 1012.7 1012.6 14.4
23/06:30am 12.1 12.7 11.9 99 0.1 CALM 0 0 0 0 1012.6 1012.5 14.4
23/06:00am 11.9 12.4 11.7 99 0.1 CALM 0 0 0 0 1012.1 1012.0 14.4
23/05:30am 13.0 13.9 12.8 99 0.1 CALM 0 0 0 0 1011.7 1011.6 14.2
23/05:00am 12.5 13.2 12.3 99 0.1 CALM 0 0 0 0 1011.2 1011.1 14.2
23/04:44am 12.8 13.6 12.6 99 0.1 CALM 0 0 0 0 1011.1 1011.0 14.2
23/04:30am 13.1 14.0 12.9 99 0.1 CALM 0 0 0 0 1010.9 1010.8 14.2
23/04:24am 13.1 14.0 12.9 99 0.1 CALM 0 0 0 0 1010.9 1010.8 14.2
23/04:00am 13.3 14.3 13.1 99 0.1 CALM 0 0 0 0 1010.7 1010.6 14.2
23/03:43am 14.2 15.5 14.0 99 0.1 CALM 0 6 0 3 1010.7 1010.6 14.2
23/03:39am 14.1 15.0 13.9 99 0.1 NNE 2 7 1 4 1010.8 1010.7 14.2
23/03:30am 13.9 15.1 13.7 99 0.1 CALM 0 0 0 0 1010.7 1010.6 14.2
23/03:00am 14.5 15.9 14.3 99 0.1 CALM 0 0 0 0 1010.7 1010.6 14.2
23/02:59am 14.9 16.4 14.7 99 0.1 CALM 0 0 0 0 1010.7 1010.6 14.2
23/02:55am 15.0 16.6 14.8 99 0.1 CALM 0 0 0 0 1010.8 1010.7 14.2
23/02:30am 15.3 17.0 15.1 99 0.1 CALM 0 0 0 0 1010.9 1010.8 14.2
23/02:00am 15.2 16.8 14.9 98 0.2 CALM 0 0 0 0 1011.2 1011.1 14.2
23/01:30am 15.5 16.4 15.2 98 0.2 NNE 4 7 2 4 1011.4 1011.3 14.2
23/01:00am 15.6 16.6 15.3 98 0.2 WSW 4 9 2 5 1011.6 1011.5 14.2
23/12:30am 15.6 17.2 15.0 96 0.3 CALM 0 9 0 5 1011.7 1011.6 14.2
23/12:00am 16.1 17.8 15.3 95 0.5 CALM 0 0 0 0 1011.8 1011.7 14.2
 
Date/Time
EST
Temp
°C
App
Temp
°C
Dew
Point
Rel
Hum
%
Delta-T
°C
Wind Press
QNH
hPa
Press
MSL
hPa
Rain
since 9 am
mm
Dir
 
Spd
km/h
Gust
km/h
Spd
kts
Gust
kts
22/11:48pm 16.1 17.8 15.3 95 0.5 CALM 0 6 0 3 1012.0 1011.9 14.0
22/11:34pm 16.2 16.8 15.4 95 0.5 SE 6 9 3 5 1012.2 1012.1 13.8
22/11:30pm 16.2 16.6 15.2 94 0.6 SE 7 11 4 6 1012.2 1012.1 13.6
22/11:00pm 16.2 16.2 15.2 94 0.6 SE 9 11 5 6 1012.1 1012.0 13.2
22/10:30pm 16.4 16.1 15.4 94 0.6 SW 11 13 6 7 1011.9 1011.8 13.2
22/10:00pm 16.1 16.8 15.5 96 0.4 SW 6 7 3 4 1012.3 1012.2 13.2
22/09:30pm 16.1 17.8 15.1 94 0.6 CALM 0 0 0 0 1012.5 1012.4 12.4
22/09:00pm 16.3 16.8 15.0 92 0.8 SW 6 7 3 4 1012.4 1012.3 12.4
22/08:30pm 16.6 16.5 15.0 90 0.9 SSW 9 13 5 7 1012.5 1012.4 12.2
22/08:00pm 16.5 16.8 14.9 90 0.9 SW 7 11 4 6 1012.2 1012.1 11.4
22/07:30pm 16.1 16.4 15.0 93 0.6 SW 7 11 4 6 1012.2 1012.1 11.4
22/07:00pm 16.1 16.1 15.1 94 0.6 WSW 9 13 5 7 1012.0 1011.9 11.4
22/06:44pm 16.2 15.8 15.2 94 0.6 WSW 11 17 6 9 1011.9 1011.8 11.4
22/06:30pm 16.2 15.7 14.9 92 0.8 SW 11 15 6 8 1011.9 1011.8 11.0
22/06:28pm 16.3 15.8 15.0 92 0.8 SW 11 15 6 8 1012.0 1011.9 10.6
22/06:00pm 17.4 15.1 14.1 81 1.9 SSW 19 24 10 13 1011.9 1011.8 8.6
22/05:30pm 17.7 16.8 13.8 78 2.2 SSW 11 17 6 9 1011.5 1011.4 8.6
22/05:00pm 18.1 16.1 13.8 76 2.5 SSW 17 28 9 15 1011.5 1011.4 8.6
22/04:30pm 18.2 16.2 13.9 76 2.5 SSW 17 24 9 13 1011.5 1011.4 8.6
22/04:00pm 18.7 16.4 14.2 75 2.6 SSW 19 30 10 16 1011.3 1011.2 8.6
22/03:30pm 17.7 15.4 14.0 79 2.1 SSW 19 24 10 13 1011.5 1011.4 8.6
22/03:00pm 17.1 15.0 14.6 85 1.4 SW 19 26 10 14 1011.5 1011.4 8.6
22/02:30pm 16.9 15.9 14.5 86 1.4 SW 13 19 7 10 1011.7 1011.6 7.4

Other Formats:

Comma delimited format used in spreadsheet applications
http://www.bom.gov.au/fwo/IDN60801/IDN60801.94755.axf

JavaScript Object Notation format (JSON) in row-major order
http://www.bom.gov.au/fwo/IDN60801/IDN60801.94755.json